createdAt,value
2022-09-27T00:02:19.887Z,15.67
2022-09-27T00:04:47.639Z,15.65
2022-09-27T00:07:15.338Z,15.66
2022-09-27T00:09:44.454Z,15.51
2022-09-27T00:12:12.041Z,15.62
2022-09-27T00:14:40.765Z,15.61
2022-09-27T00:17:08.558Z,15.59
2022-09-27T00:19:36.245Z,15.60
2022-09-27T00:22:03.825Z,15.58
2022-09-27T00:24:32.809Z,15.57
2022-09-27T00:27:01.719Z,15.53
2022-09-27T00:29:30.583Z,15.57
2022-09-27T00:31:58.150Z,15.55
2022-09-27T00:34:31.805Z,15.37
2022-09-27T00:36:59.442Z,15.53
2022-09-27T00:39:27.217Z,15.51
2022-09-27T00:41:54.837Z,15.50
2022-09-27T00:44:59.293Z,15.51
2022-09-27T00:47:31.528Z,15.45
2022-09-27T00:50:00.780Z,15.44
2022-09-27T00:52:30.594Z,15.45
2022-09-27T00:54:59.580Z,15.39
2022-09-27T00:57:27.339Z,15.39
2022-09-27T00:59:56.114Z,15.43
2022-09-27T01:02:23.754Z,15.44
2022-09-27T01:04:53.401Z,15.43
2022-09-27T01:07:21.109Z,15.36
2022-09-27T01:09:49.289Z,15.45
2022-09-27T01:12:19.774Z,15.36
2022-09-27T01:14:56.757Z,15.43
2022-09-27T01:17:31.389Z,15.44
2022-09-27T01:20:45.258Z,15.49
2022-09-27T01:23:34.614Z,15.20
2022-09-27T01:26:10.889Z,15.40
2022-09-27T01:28:46.452Z,15.22
2022-09-27T01:31:18.225Z,15.17
2022-09-27T01:33:47.468Z,15.38
2022-09-27T01:36:20.788Z,15.43
2022-09-27T01:38:56.411Z,15.40
2022-09-27T01:41:28.993Z,15.39
2022-09-27T01:43:58.674Z,15.40
2022-09-27T01:46:28.903Z,15.41
2022-09-27T01:48:56.879Z,15.40
2022-09-27T01:51:26.425Z,15.35
2022-09-27T01:53:55.526Z,15.43
2022-09-27T01:56:25.320Z,15.43
2022-09-27T01:58:57.728Z,15.44
2022-09-27T02:01:25.841Z,15.43
2022-09-27T02:03:54.918Z,15.41
2022-09-27T02:06:23.687Z,15.35
2022-09-27T02:08:52.750Z,15.36
2022-09-27T02:11:20.461Z,15.39
2022-09-27T02:13:50.833Z,15.37
2022-09-27T02:16:24.226Z,15.31
2022-09-27T02:18:57.882Z,15.27
2022-09-27T02:21:27.215Z,15.09
2022-09-27T02:23:57.204Z,15.34
2022-09-27T02:26:27.757Z,15.39
2022-09-27T02:28:58.040Z,15.34
2022-09-27T02:31:25.811Z,15.35
2022-09-27T02:33:57.070Z,15.35
2022-09-27T02:36:24.919Z,15.36
2022-09-27T02:38:52.621Z,15.30
2022-09-27T02:41:20.999Z,15.34
2022-09-27T02:43:53.088Z,15.21
2022-09-27T02:46:36.533Z,15.34
2022-09-27T02:49:11.969Z,15.34
2022-09-27T02:51:44.932Z,15.34
2022-09-27T02:54:17.884Z,15.33
2022-09-27T02:56:49.851Z,15.26
2022-09-27T02:59:20.916Z,15.33
2022-09-27T03:01:51.894Z,15.10
2022-09-27T03:04:23.430Z,15.13
2022-09-27T03:06:51.232Z,15.30
2022-09-27T03:09:19.798Z,15.31
2022-09-27T03:11:47.523Z,15.32
2022-09-27T03:14:15.134Z,15.32
2022-09-27T03:16:43.854Z,15.30
2022-09-27T03:19:11.834Z,15.32
2022-09-27T03:21:40.948Z,15.34
2022-09-27T03:24:08.681Z,15.33
2022-09-27T03:26:36.396Z,15.33
2022-09-27T03:29:04.011Z,15.30
2022-09-27T03:31:32.003Z,15.32
2022-09-27T03:33:59.721Z,15.22
2022-09-27T03:36:27.397Z,15.32
2022-09-27T03:38:56.461Z,15.30
2022-09-27T03:41:24.104Z,15.36
2022-09-27T03:43:51.890Z,15.36
2022-09-27T03:46:19.572Z,15.32
2022-09-27T03:48:47.208Z,15.33
2022-09-27T03:51:14.809Z,15.27
2022-09-27T03:53:42.841Z,15.29
2022-09-27T03:56:11.916Z,15.29
2022-09-27T03:58:39.476Z,15.30
2022-09-27T04:01:07.201Z,15.30
2022-09-27T04:03:36.064Z,15.31
2022-09-27T04:06:03.859Z,15.29
2022-09-27T04:08:31.783Z,15.22
2022-09-27T04:10:59.433Z,15.25
2022-09-27T04:13:28.355Z,15.18
2022-09-27T04:15:56.113Z,15.23
2022-09-27T04:18:23.749Z,15.22
2022-09-27T04:20:51.420Z,15.23
2022-09-27T04:23:20.630Z,15.23
2022-09-27T04:25:48.403Z,15.24
2022-09-27T04:28:16.518Z,15.22
2022-09-27T04:30:46.472Z,15.20
2022-09-27T04:33:14.283Z,15.17
2022-09-27T04:35:59.705Z,15.17
2022-09-27T04:38:27.413Z,15.08
2022-09-27T04:40:55.205Z,15.06
2022-09-27T04:43:22.868Z,15.01
2022-09-27T04:45:51.952Z,15.07
2022-09-27T04:48:19.571Z,15.09
2022-09-27T04:50:47.167Z,15.02
2022-09-27T04:53:29.625Z,15.10
2022-09-27T04:58:26.108Z,15.08
2022-09-27T05:00:55.803Z,15.04
2022-09-27T05:03:23.613Z,15.05
2022-09-27T05:05:51.310Z,15.05
2022-09-27T05:08:19.142Z,15.05
2022-09-27T05:10:47.193Z,15.05
2022-09-27T05:13:15.009Z,15.05
2022-09-27T05:15:42.645Z,15.04
2022-09-27T05:18:11.720Z,15.03
2022-09-27T05:20:39.818Z,15.01
2022-09-27T05:23:07.473Z,15.02
2022-09-27T05:25:35.442Z,15.00
2022-09-27T05:28:03.453Z,15.00
2022-09-27T05:30:31.119Z,14.98
2022-09-27T05:32:58.715Z,14.98
2022-09-27T05:35:28.261Z,14.95
2022-09-27T05:37:56.094Z,14.95
2022-09-27T05:40:42.083Z,14.96
2022-09-27T05:43:10.364Z,14.98
2022-09-27T05:45:38.375Z,14.74
2022-09-27T05:48:06.104Z,14.99
2022-09-27T05:50:35.263Z,14.98
2022-09-27T05:53:02.861Z,15.01
2022-09-27T05:55:30.702Z,15.02
2022-09-27T05:57:59.325Z,15.01
2022-09-27T06:00:27.101Z,15.00
2022-09-27T06:02:56.189Z,15.00
2022-09-27T06:05:24.213Z,15.02
2022-09-27T06:07:53.462Z,15.01
2022-09-27T06:10:21.089Z,14.86
2022-09-27T06:12:50.269Z,15.02
2022-09-27T06:15:18.017Z,15.01
2022-09-27T06:17:45.774Z,14.96
2022-09-27T06:20:14.532Z,15.03
2022-09-27T06:22:42.303Z,15.03
2022-09-27T06:25:11.943Z,15.05
2022-09-27T06:27:39.672Z,15.06
2022-09-27T06:30:08.347Z,15.10
2022-09-27T06:32:36.640Z,15.14
2022-09-27T06:35:06.034Z,15.20
2022-09-27T06:37:34.648Z,15.25
2022-09-27T06:40:09.226Z,15.32
2022-09-27T06:42:38.813Z,15.35
2022-09-27T06:45:07.578Z,15.23
2022-09-27T06:47:36.697Z,15.45
2022-09-27T06:50:05.900Z,15.45
2022-09-27T06:52:33.575Z,15.48
2022-09-27T06:55:01.206Z,15.47
2022-09-27T06:57:46.285Z,15.47
2022-09-27T07:00:24.690Z,15.46
2022-09-27T07:02:52.288Z,15.14
2022-09-27T07:05:20.008Z,15.41
2022-09-27T07:07:47.843Z,15.34
2022-09-27T07:10:17.183Z,15.39
2022-09-27T07:12:47.425Z,15.37
2022-09-27T07:15:18.103Z,15.29
2022-09-27T07:17:47.428Z,15.35
2022-09-27T07:20:15.660Z,15.34
2022-09-27T07:22:44.068Z,15.38
2022-09-27T07:25:11.948Z,15.39
2022-09-27T07:27:41.252Z,15.40
2022-09-27T07:30:10.311Z,15.39
2022-09-27T07:32:39.334Z,15.34
2022-09-27T07:35:08.134Z,15.41
2022-09-27T07:37:36.188Z,15.44
2022-09-27T07:40:08.672Z,15.51
2022-09-27T07:42:37.858Z,15.55
2022-09-27T07:45:09.242Z,15.64
2022-09-27T07:47:37.497Z,15.66
2022-09-27T07:50:07.128Z,15.66
2022-09-27T07:52:40.173Z,15.77
2022-09-27T07:55:08.941Z,15.87
2022-09-27T07:57:36.597Z,15.95
2022-09-27T08:00:05.996Z,15.99
2022-09-27T08:02:33.738Z,16.01
2022-09-27T08:05:01.523Z,16.04
2022-09-27T08:07:31.247Z,16.04
2022-09-27T08:10:00.051Z,16.03
2022-09-27T08:12:27.759Z,16.03
2022-09-27T08:14:58.524Z,16.04
2022-09-27T08:17:26.439Z,16.08
2022-09-27T08:19:54.003Z,16.13
2022-09-27T08:22:22.161Z,16.09
2022-09-27T08:24:51.119Z,16.13
2022-09-27T08:27:18.949Z,16.10
2022-09-27T08:29:47.800Z,16.10
2022-09-27T08:32:18.338Z,16.13
2022-09-27T08:34:49.867Z,15.88
2022-09-27T08:37:17.541Z,16.10
2022-09-27T08:39:47.975Z,16.06
2022-09-27T08:42:21.108Z,16.03
2022-09-27T08:44:51.137Z,15.93
2022-09-27T08:47:19.427Z,16.05
2022-09-27T08:52:32.710Z,16.13
2022-09-27T08:55:02.636Z,16.21
2022-09-27T08:57:31.623Z,16.32
2022-09-27T09:00:02.742Z,16.39
2022-09-27T09:02:30.427Z,16.57
2022-09-27T09:05:00.114Z,16.70
2022-09-27T09:07:36.922Z,16.75
2022-09-27T09:10:07.722Z,16.66
2022-09-27T09:12:48.676Z,16.75
2022-09-27T09:15:24.179Z,16.84
2022-09-27T09:18:20.309Z,16.94
2022-09-27T09:20:56.233Z,16.82
2022-09-27T09:23:50.171Z,16.84
2022-09-27T09:26:20.564Z,16.92
2022-09-27T09:28:57.056Z,17.10
2022-09-27T09:31:27.709Z,16.99
2022-09-27T09:33:56.415Z,16.96
2022-09-27T09:36:26.360Z,16.81
2022-09-27T09:38:55.738Z,16.75
2022-09-27T09:41:25.961Z,17.10
2022-09-27T09:43:56.865Z,16.46
2022-09-27T09:46:25.729Z,17.34
2022-09-27T09:48:56.148Z,17.48
2022-09-27T09:51:38.376Z,17.24
2022-09-27T09:54:07.914Z,17.46
2022-09-27T09:56:36.710Z,17.44
2022-09-27T09:59:07.732Z,16.56
2022-09-27T10:01:36.796Z,17.65
2022-09-27T10:04:04.484Z,17.70
2022-09-27T10:06:32.409Z,17.94
2022-09-27T10:09:00.537Z,17.69
2022-09-27T10:11:33.051Z,17.71
2022-09-27T10:14:00.788Z,17.77
2022-09-27T10:16:29.917Z,18.11
2022-09-27T10:19:00.646Z,18.08
2022-09-27T10:21:30.219Z,18.20
2022-09-27T10:24:17.335Z,18.21
2022-09-27T10:26:47.235Z,18.12
2022-09-27T10:29:24.732Z,18.08
2022-09-27T10:31:53.726Z,17.98
2022-09-27T10:34:26.218Z,17.70
2022-09-27T10:37:05.052Z,17.45
2022-09-27T10:39:32.634Z,17.63
2022-09-27T10:42:00.169Z,17.78
2022-09-27T10:44:29.281Z,17.66
2022-09-27T10:46:59.885Z,18.26
2022-09-27T10:49:29.110Z,18.70
2022-09-27T10:51:59.923Z,18.86
2022-09-27T10:54:28.679Z,18.72
2022-09-27T10:57:00.334Z,18.48
2022-09-27T10:59:30.626Z,18.15
2022-09-27T11:01:59.742Z,17.49
2022-09-27T11:04:30.967Z,18.08
2022-09-27T11:07:08.946Z,18.38
2022-09-27T11:09:46.661Z,18.97
2022-09-27T11:12:14.449Z,19.49
2022-09-27T11:14:42.221Z,19.48
2022-09-27T11:17:17.238Z,19.83
2022-09-27T11:19:54.058Z,20.19
2022-09-27T11:22:28.922Z,20.67
2022-09-27T11:25:02.890Z,21.07
2022-09-27T11:27:36.686Z,20.81
2022-09-27T11:30:08.427Z,21.46
2022-09-27T11:32:55.091Z,21.35
2022-09-27T11:35:32.794Z,20.91
2022-09-27T11:38:04.145Z,21.12
2022-09-27T11:40:34.784Z,21.02
2022-09-27T11:43:11.693Z,21.82
2022-09-27T11:46:14.262Z,22.60
2022-09-27T11:48:46.349Z,22.99
2022-09-27T11:51:37.610Z,22.24
2022-09-27T11:54:19.010Z,22.17
2022-09-27T11:56:51.072Z,21.56
2022-09-27T12:00:07.895Z,21.39
2022-09-27T12:02:47.896Z,21.54
2022-09-27T12:05:21.556Z,20.97
2022-09-27T12:07:58.957Z,21.02
2022-09-27T12:10:26.568Z,20.15
2022-09-27T12:12:56.956Z,20.36
2022-09-27T12:15:26.379Z,20.07
2022-09-27T12:17:56.850Z,19.81
2022-09-27T12:20:29.787Z,19.68
2022-09-27T12:23:00.605Z,19.48
2022-09-27T12:25:31.142Z,19.91
2022-09-27T12:28:12.103Z,20.00
2022-09-27T12:30:41.280Z,20.29
2022-09-27T12:33:18.705Z,20.12
2022-09-27T12:35:50.038Z,20.39
2022-09-27T12:38:20.211Z,20.32
2022-09-27T12:40:50.581Z,20.01
2022-09-27T12:43:20.291Z,20.38
2022-09-27T12:46:00.984Z,20.28
2022-09-27T12:48:31.156Z,19.98
2022-09-27T12:51:03.154Z,19.92
2022-09-27T12:53:32.326Z,19.63
2022-09-27T12:56:33.086Z,19.19
2022-09-27T12:59:22.308Z,19.15
2022-09-27T13:02:05.849Z,18.88
2022-09-27T13:04:43.528Z,18.46
2022-09-27T13:07:19.273Z,18.74
2022-09-27T13:10:02.443Z,18.82
2022-09-27T13:12:30.417Z,18.46
2022-09-27T13:15:02.029Z,18.67
2022-09-27T13:17:49.949Z,18.53
2022-09-27T13:20:48.919Z,18.52
2022-09-27T13:24:00.060Z,18.33
2022-09-27T13:26:48.585Z,18.05
2022-09-27T13:29:24.919Z,17.43
2022-09-27T13:32:23.562Z,17.49
2022-09-27T13:34:53.338Z,17.61
2022-09-27T13:37:38.734Z,17.61
2022-09-27T13:40:28.572Z,17.75
2022-09-27T13:43:26.949Z,17.88
2022-09-27T13:45:56.314Z,17.91
2022-09-27T13:48:27.700Z,17.88
2022-09-27T13:50:57.988Z,17.53
2022-09-27T13:53:29.104Z,18.04
2022-09-27T13:56:02.985Z,18.19
2022-09-27T13:58:49.198Z,18.41
2022-09-27T14:01:20.955Z,18.14
2022-09-27T14:03:49.396Z,18.48
2022-09-27T14:06:18.628Z,18.46
2022-09-27T14:08:47.467Z,18.46
2022-09-27T14:11:16.628Z,18.11
2022-09-27T14:13:45.862Z,18.33
2022-09-27T14:16:15.739Z,18.44
2022-09-27T14:18:44.634Z,18.48
2022-09-27T14:21:18.211Z,18.52
2022-09-27T14:23:46.138Z,18.62
2022-09-27T14:26:23.045Z,18.71
2022-09-27T14:28:52.351Z,18.79
2022-09-27T14:31:22.905Z,18.74
2022-09-27T14:33:50.883Z,18.87
2022-09-27T14:36:44.323Z,18.81
2022-09-27T14:39:17.432Z,18.36
2022-09-27T14:41:45.256Z,18.79
2022-09-27T14:44:20.449Z,18.56
2022-09-27T14:46:51.754Z,18.79
2022-09-27T14:49:20.511Z,18.77
2022-09-27T14:51:54.952Z,18.72
2022-09-27T14:54:26.130Z,18.37
2022-09-27T14:56:54.745Z,18.41
2022-09-27T14:59:27.898Z,18.46
2022-09-27T15:01:55.508Z,18.22
2022-09-27T15:04:23.474Z,18.22
2022-09-27T15:06:51.370Z,18.11
2022-09-27T15:09:19.016Z,18.14
2022-09-27T15:11:55.777Z,17.16
2022-09-27T15:14:25.227Z,18.02
2022-09-27T15:16:53.112Z,17.91
2022-09-27T15:19:24.260Z,17.98
2022-09-27T15:21:51.946Z,18.00
2022-09-27T15:24:38.856Z,17.94
2022-09-27T15:27:07.254Z,17.83
2022-09-27T15:29:37.130Z,17.01
2022-09-27T15:32:06.697Z,17.82
2022-09-27T15:34:38.496Z,17.61
2022-09-27T15:37:07.457Z,17.72
2022-09-27T15:39:36.972Z,17.65
2022-09-27T15:42:08.916Z,17.57
2022-09-27T15:44:45.696Z,17.48
2022-09-27T15:47:50.796Z,17.39
2022-09-27T15:50:41.111Z,17.29
2022-09-27T15:53:09.417Z,16.67
2022-09-27T15:55:40.718Z,16.68
2022-09-27T15:58:09.273Z,16.37
2022-09-27T16:00:38.554Z,16.74
2022-09-27T16:03:06.248Z,16.49
2022-09-27T16:05:34.134Z,15.95
2022-09-27T16:08:02.472Z,16.55
2022-09-27T16:10:31.673Z,16.53
2022-09-27T16:12:59.261Z,16.54
2022-09-27T16:15:26.869Z,15.66
2022-09-27T16:17:57.679Z,16.55
2022-09-27T16:20:27.145Z,16.34
2022-09-27T16:22:55.665Z,16.36
2022-09-27T16:25:24.496Z,15.88
2022-09-27T16:27:52.475Z,16.37
2022-09-27T16:30:20.984Z,16.42
2022-09-27T16:32:49.238Z,16.39
2022-09-27T16:35:20.297Z,15.98
2022-09-27T16:37:48.137Z,16.20
2022-09-27T16:40:23.329Z,16.03
2022-09-27T16:42:51.503Z,15.78
2022-09-27T16:45:19.956Z,15.03
2022-09-27T16:47:49.218Z,14.08
2022-09-27T16:50:41.465Z,15.23
2022-09-27T16:53:10.600Z,16.00
2022-09-27T16:55:40.903Z,14.57
2022-09-27T16:58:10.175Z,15.94
2022-09-27T17:00:39.041Z,14.83
2022-09-27T17:03:07.043Z,15.23
2022-09-27T17:05:37.184Z,15.88
2022-09-27T17:08:05.555Z,15.22
2022-09-27T17:10:38.507Z,15.74
2022-09-27T17:20:37.437Z,15.50
2022-09-27T17:23:06.447Z,14.86
2022-09-27T17:25:39.308Z,13.64
2022-09-27T17:28:15.616Z,13.65
2022-09-27T17:31:11.933Z,13.31
2022-09-27T17:36:48.531Z,13.43
2022-09-27T17:39:18.711Z,14.57
2022-09-27T17:41:48.632Z,15.30
2022-09-27T17:44:28.035Z,14.51
2022-09-27T17:47:36.045Z,15.26
2022-09-27T17:50:30.536Z,14.66
2022-09-27T17:53:19.625Z,12.46
2022-09-27T17:55:47.992Z,14.53
2022-09-27T17:58:18.188Z,12.88
2022-09-27T18:00:59.221Z,12.76
2022-09-27T18:03:31.595Z,12.86
2022-09-27T18:06:00.729Z,12.68
2022-09-27T18:09:00.720Z,12.92
2022-09-27T18:11:29.413Z,14.02
2022-09-27T18:14:00.327Z,14.37
2022-09-27T18:16:32.570Z,12.94
2022-09-27T18:19:00.775Z,13.40
2022-09-27T18:21:28.814Z,14.42
2022-09-27T18:23:58.574Z,14.62
2022-09-27T18:26:29.081Z,13.11
2022-09-27T18:29:01.779Z,13.95
2022-09-27T18:31:29.846Z,12.16
2022-09-27T18:33:57.771Z,14.38
2022-09-27T18:36:26.327Z,14.52
2022-09-27T18:38:54.919Z,13.26
2022-09-27T18:41:25.360Z,12.25
2022-09-27T18:43:56.870Z,14.88
2022-09-27T18:46:40.505Z,14.61
2022-09-27T18:49:09.293Z,14.05
2022-09-27T18:51:37.751Z,14.79
2022-09-27T18:54:06.737Z,14.74
2022-09-27T18:56:39.331Z,13.49
2022-09-27T18:59:08.650Z,13.78
2022-09-27T19:01:39.645Z,13.86
2022-09-27T19:04:08.202Z,12.45
2022-09-27T19:06:36.398Z,14.11
2022-09-27T19:09:05.732Z,14.64
2022-09-27T19:11:35.101Z,14.35
2022-09-27T19:14:02.871Z,13.06
2022-09-27T19:16:31.175Z,12.19
2022-09-27T19:19:03.581Z,12.29
2022-09-27T19:21:31.869Z,13.73
2022-09-27T19:23:59.846Z,12.08
2022-09-27T19:26:29.952Z,14.45
2022-09-27T19:28:59.880Z,13.38
2022-09-27T19:31:29.552Z,12.83
2022-09-27T19:34:01.133Z,14.19
2022-09-27T19:36:32.154Z,13.55
2022-09-27T19:39:02.149Z,11.47
2022-09-27T19:41:30.289Z,13.13
2022-09-27T19:43:59.831Z,13.08
2022-09-27T19:46:28.250Z,14.09
2022-09-27T19:48:57.063Z,12.36
2022-09-27T19:51:26.026Z,12.27
2022-09-27T19:53:54.213Z,13.51
2022-09-27T19:56:22.858Z,14.15
2022-09-27T19:58:52.096Z,13.37
2022-09-27T20:01:23.664Z,13.06
2022-09-27T20:03:55.932Z,13.59
2022-09-27T20:06:27.499Z,13.68
2022-09-27T20:08:59.022Z,13.27
2022-09-27T20:11:36.211Z,13.57
2022-09-27T20:14:07.280Z,14.23
2022-09-27T20:16:41.507Z,13.40
2022-09-27T20:19:31.235Z,14.16
2022-09-27T20:22:03.326Z,12.57
2022-09-27T20:24:32.412Z,12.18
2022-09-27T20:27:31.319Z,13.23
2022-09-27T20:30:04.323Z,12.96
2022-09-27T20:32:35.331Z,12.96
2022-09-27T20:35:11.711Z,13.63
2022-09-27T20:37:40.181Z,13.59
2022-09-27T20:40:18.731Z,11.75
2022-09-27T20:43:03.379Z,11.83
2022-09-27T20:45:41.673Z,12.24
2022-09-27T20:48:18.817Z,13.41
2022-09-27T20:50:54.171Z,13.47
2022-09-27T20:53:27.847Z,11.38
2022-09-27T20:55:56.295Z,10.83
2022-09-27T20:58:24.499Z,12.03
2022-09-27T21:00:53.777Z,10.37
2022-09-27T21:03:26.840Z,12.73
2022-09-27T21:05:56.100Z,12.75
2022-09-27T21:08:24.910Z,12.47
2022-09-27T21:10:54.120Z,12.80
2022-09-27T21:13:22.505Z,11.37
2022-09-27T21:15:55.557Z,11.51
2022-09-27T21:18:25.112Z,12.35
2022-09-27T21:20:58.827Z,13.36
2022-09-27T21:23:26.756Z,11.81
2022-09-27T21:26:05.520Z,12.19
2022-09-27T21:28:38.702Z,11.88
2022-09-27T21:31:07.945Z,12.66
2022-09-27T21:33:39.041Z,12.45
2022-09-27T21:36:10.411Z,13.17
2022-09-27T21:38:40.503Z,12.25
2022-09-27T21:41:09.554Z,11.07
2022-09-27T21:43:42.854Z,11.40
2022-09-27T21:46:12.032Z,13.60
2022-09-27T21:48:42.701Z,12.52
2022-09-27T21:51:12.335Z,11.67
2022-09-27T21:53:43.631Z,12.75
2022-09-27T21:56:12.106Z,13.33
2022-09-27T21:58:41.677Z,12.59
2022-09-27T22:01:10.814Z,11.89
2022-09-27T22:03:39.623Z,12.81
2022-09-27T22:06:10.804Z,13.14
2022-09-27T22:08:39.325Z,12.41
2022-09-27T22:11:07.716Z,13.86
2022-09-27T22:13:35.974Z,11.54
2022-09-27T22:16:05.249Z,12.08
2022-09-27T22:18:35.317Z,13.91
2022-09-27T22:21:04.699Z,13.33
2022-09-27T22:23:35.739Z,13.22
2022-09-27T22:26:13.075Z,11.09
2022-09-27T22:28:41.529Z,10.20
2022-09-27T22:31:15.287Z,11.45
2022-09-27T22:33:43.853Z,11.51
2022-09-27T22:36:12.244Z,11.55
2022-09-27T22:38:41.872Z,12.08
2022-09-27T22:41:13.544Z,13.19
2022-09-27T22:43:41.358Z,13.37
2022-09-27T22:46:09.293Z,13.32
2022-09-27T22:48:37.450Z,13.65
2022-09-27T22:51:05.227Z,13.37
2022-09-27T22:53:32.981Z,13.01
2022-09-27T22:56:04.753Z,13.41
2022-09-27T22:58:32.687Z,13.33
2022-09-27T23:01:00.522Z,12.78
2022-09-27T23:03:28.286Z,12.62
2022-09-27T23:05:55.982Z,12.74
2022-09-27T23:08:23.763Z,13.83
2022-09-27T23:10:51.374Z,13.12
2022-09-27T23:13:20.547Z,13.12
2022-09-27T23:15:48.291Z,13.59
2022-09-27T23:18:15.994Z,13.21
2022-09-27T23:20:44.896Z,13.91
2022-09-27T23:23:14.063Z,13.20
2022-09-27T23:25:41.801Z,12.86
2022-09-27T23:28:09.457Z,13.93
2022-09-27T23:30:38.753Z,13.05
2022-09-27T23:33:06.454Z,13.25
2022-09-27T23:35:34.169Z,12.18
2022-09-27T23:38:01.933Z,11.99
2022-09-27T23:40:30.041Z,12.92
2022-09-27T23:43:00.794Z,13.34
2022-09-27T23:45:28.598Z,13.34
2022-09-27T23:47:57.974Z,13.05
2022-09-27T23:50:26.101Z,11.58
2022-09-27T23:52:53.873Z,13.07
2022-09-27T23:55:21.629Z,12.47
2022-09-27T23:57:49.348Z,11.53
